createdAt,value
2023-04-20T00:01:19.840Z,36.78
2023-04-20T00:03:47.317Z,36.92
2023-04-20T00:06:15.809Z,36.92
2023-04-20T00:08:44.351Z,36.62
2023-04-20T00:11:11.916Z,36.44
2023-04-20T00:13:39.409Z,36.19
2023-04-20T00:16:06.948Z,36.56
2023-04-20T00:18:34.534Z,36.56
2023-04-20T00:21:01.958Z,36.57
2023-04-20T00:23:29.469Z,36.63
2023-04-20T00:25:56.831Z,36.99
2023-04-20T00:28:24.218Z,37.22
2023-04-20T00:30:51.733Z,37.00
2023-04-20T00:33:19.380Z,37.22
2023-04-20T00:35:46.756Z,37.23
2023-04-20T00:38:14.292Z,36.79
2023-04-20T00:40:44.509Z,36.32
2023-04-20T00:43:13.267Z,36.70
2023-04-20T00:45:40.948Z,36.68
2023-04-20T00:48:11.088Z,36.91
2023-04-20T00:50:39.487Z,36.23
2023-04-20T00:53:08.590Z,36.43
2023-04-20T00:55:37.249Z,36.01
2023-04-20T00:58:05.141Z,35.79
2023-04-20T01:00:34.379Z,35.75
2023-04-20T01:03:02.213Z,35.10
2023-04-20T01:05:29.744Z,35.46
2023-04-20T01:07:57.329Z,35.67
2023-04-20T01:10:24.857Z,35.39
2023-04-20T01:12:52.323Z,35.32
2023-04-20T01:15:19.702Z,35.74
2023-04-20T01:17:47.355Z,35.93
2023-04-20T01:20:17.714Z,35.62
2023-04-20T01:22:51.311Z,35.91
2023-04-20T01:25:18.982Z,35.79
2023-04-20T01:27:47.623Z,36.01
2023-04-20T01:30:15.275Z,36.03
2023-04-20T01:32:43.030Z,35.52
2023-04-20T01:35:11.315Z,35.42
2023-04-20T01:37:40.336Z,35.54
2023-04-20T01:40:12.735Z,35.66
2023-04-20T01:42:40.476Z,35.31
2023-04-20T01:45:08.728Z,35.59
2023-04-20T01:47:37.384Z,35.63
2023-04-20T01:50:05.519Z,35.68
2023-04-20T01:52:34.021Z,35.49
2023-04-20T01:55:01.639Z,35.60
2023-04-20T01:57:31.541Z,36.08
2023-04-20T02:00:00.529Z,35.54
2023-04-20T02:02:28.316Z,35.44
2023-04-20T02:04:55.872Z,35.61
2023-04-20T02:07:23.256Z,35.39
2023-04-20T02:09:50.679Z,35.78
2023-04-20T02:12:18.052Z,36.07
2023-04-20T02:14:45.540Z,36.22
2023-04-20T02:17:15.091Z,36.45
2023-04-20T02:19:42.650Z,36.03
2023-04-20T02:22:10.238Z,36.58
2023-04-20T02:24:37.641Z,36.14
2023-04-20T02:27:05.140Z,36.63
2023-04-20T02:29:32.867Z,36.39
2023-04-20T02:32:00.379Z,36.75
2023-04-20T02:34:27.977Z,36.25
2023-04-20T02:37:15.791Z,36.15
2023-04-20T02:39:43.484Z,36.37
2023-04-20T02:42:10.856Z,35.98
2023-04-20T02:44:38.924Z,35.97
2023-04-20T02:47:06.737Z,36.15
2023-04-20T02:49:34.296Z,36.08
2023-04-20T02:52:01.721Z,36.43
2023-04-20T02:54:29.217Z,35.91
2023-04-20T02:56:59.016Z,35.79
2023-04-20T02:59:27.110Z,36.03
2023-04-20T03:02:05.922Z,35.71
2023-04-20T03:04:33.825Z,35.01
2023-04-20T03:07:09.896Z,35.25
2023-04-20T03:09:39.258Z,35.46
2023-04-20T03:12:45.002Z,34.76
2023-04-20T03:15:30.965Z,34.10
2023-04-20T03:18:04.892Z,34.68
2023-04-20T03:20:32.822Z,34.42
2023-04-20T03:23:00.428Z,34.39
2023-04-20T03:25:28.684Z,34.18
2023-04-20T03:28:00.035Z,34.45
2023-04-20T03:30:27.889Z,34.64
2023-04-20T03:33:01.674Z,34.31
2023-04-20T03:35:29.512Z,33.98
2023-04-20T03:37:56.970Z,34.21
2023-04-20T03:40:24.606Z,34.03
2023-04-20T03:43:29.165Z,33.92
2023-04-20T03:45:56.667Z,34.22
2023-04-20T03:48:24.117Z,33.82
2023-04-20T03:50:53.190Z,34.08
2023-04-20T03:53:20.726Z,33.89
2023-04-20T03:55:48.320Z,33.79
2023-04-20T03:58:21.319Z,34.23
2023-04-20T04:01:08.054Z,34.24
2023-04-20T04:03:38.049Z,34.21
2023-04-20T04:06:06.196Z,34.46
2023-04-20T04:08:34.459Z,34.44
2023-04-20T04:11:02.164Z,34.84
2023-04-20T04:13:29.600Z,34.62
2023-04-20T04:15:57.130Z,34.66
2023-04-20T04:18:24.709Z,34.70
2023-04-20T04:20:52.682Z,34.76
2023-04-20T04:23:20.984Z,34.94
2023-04-20T04:25:51.542Z,35.69
2023-04-20T04:28:24.318Z,35.29
2023-04-20T04:31:10.074Z,35.32
2023-04-20T04:33:37.616Z,35.05
2023-04-20T04:36:06.378Z,35.07
2023-04-20T04:38:35.238Z,35.23
2023-04-20T04:41:03.099Z,35.63
2023-04-20T04:43:31.534Z,35.05
2023-04-20T04:46:12.686Z,35.04
2023-04-20T04:48:43.632Z,35.18
2023-04-20T04:51:11.700Z,34.99
2023-04-20T04:53:39.161Z,35.14
2023-04-20T04:56:07.198Z,34.55
2023-04-20T04:58:34.692Z,35.44
2023-04-20T05:01:02.261Z,35.21
2023-04-20T05:03:29.925Z,34.69
2023-04-20T05:05:57.480Z,35.32
2023-04-20T05:08:43.420Z,34.67
2023-04-20T05:11:11.204Z,35.01
2023-04-20T05:13:39.942Z,34.73
2023-04-20T05:16:07.599Z,34.32
2023-04-20T05:18:35.161Z,34.93
2023-04-20T05:21:02.839Z,34.26
2023-04-20T05:26:15.035Z,34.74
2023-04-20T05:28:44.636Z,34.69
2023-04-20T05:31:12.934Z,34.47
2023-04-20T05:33:41.117Z,34.40
2023-04-20T05:36:11.658Z,34.03
2023-04-20T05:38:39.160Z,34.51
2023-04-20T05:41:06.897Z,34.57
2023-04-20T05:43:34.389Z,34.38
2023-04-20T05:46:21.656Z,34.13
2023-04-20T05:48:49.860Z,34.03
2023-04-20T05:51:17.728Z,34.04
2023-04-20T05:53:45.297Z,34.17
2023-04-20T05:56:13.830Z,34.18
2023-04-20T05:58:41.828Z,34.06
2023-04-20T06:01:10.039Z,34.45
2023-04-20T06:03:38.461Z,33.89
2023-04-20T06:06:38.041Z,34.25
2023-04-20T06:09:31.349Z,34.00
2023-04-20T06:12:24.228Z,34.46
2023-04-20T06:14:54.233Z,33.97
2023-04-20T06:17:24.604Z,33.94
2023-04-20T06:19:53.642Z,33.85
2023-04-20T06:22:23.903Z,33.93
2023-04-20T06:25:02.534Z,33.69
2023-04-20T06:27:34.651Z,33.95
2023-04-20T06:30:08.387Z,33.27
2023-04-20T06:32:36.195Z,33.52
2023-04-20T06:35:04.915Z,33.87
2023-04-20T06:37:36.985Z,33.81
2023-04-20T06:40:09.294Z,33.99
2023-04-20T06:42:37.874Z,33.37
2023-04-20T06:45:07.551Z,33.52
2023-04-20T06:47:41.158Z,33.56
2023-04-20T06:50:10.172Z,33.49
2023-04-20T06:52:56.371Z,32.67
2023-04-20T06:55:26.086Z,32.87
2023-04-20T06:57:56.626Z,32.69
2023-04-20T07:00:28.059Z,32.57
2023-04-20T07:02:58.312Z,32.36
2023-04-20T07:05:28.972Z,32.21
2023-04-20T07:08:05.862Z,31.78
2023-04-20T07:10:33.873Z,32.14
2023-04-20T07:13:02.286Z,31.87
2023-04-20T07:15:29.816Z,31.82
2023-04-20T07:17:58.639Z,31.56
2023-04-20T07:20:29.128Z,31.70
2023-04-20T07:23:05.767Z,31.42
2023-04-20T07:26:21.603Z,31.02
2023-04-20T07:28:52.662Z,31.09
2023-04-20T07:31:23.329Z,30.65
2023-04-20T07:33:56.301Z,30.29
2023-04-20T07:36:34.971Z,30.33
2023-04-20T07:39:12.529Z,30.11
2023-04-20T07:41:45.236Z,30.17
2023-04-20T07:44:17.318Z,29.09
2023-04-20T07:46:50.581Z,27.40
2023-04-20T07:49:19.548Z,26.96
2023-04-20T07:51:51.724Z,26.94
2023-04-20T07:57:06.931Z,25.82
2023-04-20T07:59:35.709Z,25.14
2023-04-20T08:02:04.724Z,25.22
2023-04-20T08:04:33.466Z,23.29
2023-04-20T08:07:01.559Z,24.12
2023-04-20T08:09:30.126Z,23.31
2023-04-20T08:11:58.186Z,22.80
2023-04-20T08:14:26.089Z,22.47
2023-04-20T08:16:53.973Z,21.85
2023-04-20T08:19:23.407Z,22.37
2023-04-20T08:21:52.851Z,21.31
2023-04-20T08:24:21.792Z,20.86
2023-04-20T08:27:18.765Z,21.10
2023-04-20T08:29:54.057Z,21.17
2023-04-20T08:32:24.590Z,20.99
2023-04-20T08:34:55.933Z,20.82
2023-04-20T08:37:35.077Z,21.03
2023-04-20T08:40:02.569Z,20.49
2023-04-20T08:42:32.696Z,21.11
2023-04-20T08:45:00.811Z,21.06
2023-04-20T08:47:29.612Z,20.44
2023-04-20T08:49:59.290Z,20.89
2023-04-20T08:52:27.069Z,21.17
2023-04-20T08:54:58.117Z,20.96
2023-04-20T08:57:26.430Z,21.10
2023-04-20T08:59:54.191Z,20.89
2023-04-20T09:02:23.168Z,20.65
2023-04-20T09:05:01.503Z,21.04
2023-04-20T09:07:30.960Z,20.73
2023-04-20T09:10:01.159Z,20.74
2023-04-20T09:12:42.034Z,20.30
2023-04-20T09:15:11.046Z,20.80
2023-04-20T09:17:41.579Z,20.55
2023-04-20T09:20:11.845Z,20.58
2023-04-20T09:22:43.887Z,21.29
2023-04-20T09:25:33.222Z,21.40
2023-04-20T09:28:07.305Z,21.15
2023-04-20T09:30:49.728Z,21.22
2023-04-20T09:33:20.753Z,21.67
2023-04-20T09:35:48.797Z,21.58
2023-04-20T09:38:17.739Z,21.66
2023-04-20T09:40:45.409Z,21.68
2023-04-20T09:43:20.723Z,21.41
2023-04-20T09:45:49.427Z,21.91
2023-04-20T09:48:19.759Z,21.36
2023-04-20T09:50:49.914Z,20.35
2023-04-20T09:53:20.062Z,21.21
2023-04-20T09:55:50.169Z,21.01
2023-04-20T09:58:21.747Z,21.23
2023-04-20T10:00:50.513Z,20.96
2023-04-20T10:03:19.822Z,21.45
2023-04-20T10:05:48.447Z,21.43
2023-04-20T10:08:19.308Z,22.20
2023-04-20T10:10:49.104Z,21.75
2023-04-20T10:13:19.871Z,21.12
2023-04-20T10:15:47.861Z,21.04
2023-04-20T10:18:27.130Z,21.51
2023-04-20T10:21:09.925Z,21.35
2023-04-20T10:23:51.617Z,20.79
2023-04-20T10:26:20.224Z,21.20
2023-04-20T10:28:47.812Z,20.73
2023-04-20T10:31:17.237Z,20.39
2023-04-20T10:33:55.837Z,20.32
2023-04-20T10:36:32.151Z,20.60
2023-04-20T10:39:01.873Z,20.33
2023-04-20T10:41:30.188Z,20.25
2023-04-20T10:44:08.471Z,20.04
2023-04-20T10:46:37.113Z,20.17
2023-04-20T10:49:04.823Z,20.06
2023-04-20T10:51:33.562Z,19.97
2023-04-20T10:54:08.665Z,20.14
2023-04-20T10:56:42.732Z,20.07
2023-04-20T10:59:13.440Z,19.79
2023-04-20T11:01:41.988Z,20.28
2023-04-20T11:04:11.118Z,20.28
2023-04-20T11:06:44.774Z,21.23
2023-04-20T11:09:22.983Z,20.92
2023-04-20T11:12:15.029Z,20.31
2023-04-20T11:15:03.113Z,20.99
2023-04-20T11:17:39.295Z,20.72
2023-04-20T11:20:17.288Z,20.43
2023-04-20T11:22:45.339Z,20.70
2023-04-20T11:25:13.481Z,20.50
2023-04-20T11:27:42.465Z,19.85
2023-04-20T11:30:10.517Z,19.75
2023-04-20T11:32:38.919Z,19.74
2023-04-20T11:35:09.768Z,20.04
2023-04-20T11:37:49.299Z,19.86
2023-04-20T11:40:17.338Z,19.44
2023-04-20T11:42:45.277Z,19.86
2023-04-20T11:45:13.107Z,20.01
2023-04-20T11:47:42.683Z,19.54
2023-04-20T11:50:11.885Z,19.90
2023-04-20T11:52:39.526Z,20.05
2023-04-20T11:55:07.617Z,18.72
2023-04-20T11:57:35.133Z,19.24
2023-04-20T12:00:04.612Z,19.07
2023-04-20T12:02:41.862Z,19.05
2023-04-20T12:05:10.286Z,19.54
2023-04-20T12:07:57.077Z,18.94
2023-04-20T12:10:26.095Z,17.88
2023-04-20T12:13:12.219Z,18.46
2023-04-20T12:15:40.398Z,18.45
2023-04-20T12:18:08.057Z,18.99
2023-04-20T12:20:35.584Z,18.67
2023-04-20T12:23:02.916Z,18.16
2023-04-20T12:25:30.212Z,18.83
2023-04-20T12:27:57.584Z,19.04
2023-04-20T12:30:25.040Z,19.03
2023-04-20T12:32:52.436Z,19.03
2023-04-20T12:35:21.030Z,19.21
2023-04-20T12:37:48.361Z,19.21
2023-04-20T12:40:15.703Z,18.95
2023-04-20T12:42:43.032Z,18.30
2023-04-20T12:45:11.051Z,18.17
2023-04-20T12:47:38.553Z,18.31
2023-04-20T12:50:07.632Z,18.32
2023-04-20T12:52:34.988Z,18.37
2023-04-20T12:55:02.434Z,18.48
2023-04-20T12:57:31.950Z,18.57
2023-04-20T13:00:00.179Z,18.55
2023-04-20T13:02:27.750Z,18.72
2023-04-20T13:04:55.203Z,19.07
2023-04-20T13:07:22.588Z,18.97
2023-04-20T13:09:49.850Z,19.14
2023-04-20T13:12:17.347Z,19.14
2023-04-20T13:14:44.684Z,19.16
2023-04-20T13:17:12.074Z,18.89
2023-04-20T13:19:39.624Z,18.72
2023-04-20T13:22:06.951Z,19.07
2023-04-20T13:24:34.447Z,19.21
2023-04-20T13:27:02.044Z,19.49
2023-04-20T13:29:29.265Z,19.40
2023-04-20T13:31:56.697Z,20.03
2023-04-20T13:34:23.999Z,19.75
2023-04-20T13:36:52.063Z,20.28
2023-04-20T13:39:21.039Z,20.40
2023-04-20T13:41:49.682Z,20.58
2023-04-20T13:44:17.585Z,20.50
2023-04-20T13:46:47.268Z,20.04
2023-04-20T13:49:14.665Z,20.38
2023-04-20T13:51:42.198Z,20.14
2023-04-20T13:54:09.565Z,20.51
2023-04-20T13:56:36.964Z,20.34
2023-04-20T13:59:04.472Z,20.46
2023-04-20T14:01:32.093Z,20.41
2023-04-20T14:03:59.609Z,20.02
2023-04-20T14:06:27.952Z,20.17
2023-04-20T14:08:55.465Z,20.51
2023-04-20T14:11:22.841Z,20.47
2023-04-20T14:13:50.326Z,20.07
2023-04-20T14:16:17.707Z,20.62
2023-04-20T14:18:45.704Z,20.75
2023-04-20T14:21:13.073Z,20.29
2023-04-20T14:23:40.587Z,20.86
2023-04-20T14:26:07.997Z,20.50
2023-04-20T14:28:35.420Z,20.46
2023-04-20T14:31:03.344Z,20.40
2023-04-20T14:33:31.045Z,20.48
2023-04-20T14:35:58.296Z,20.64
2023-04-20T14:38:25.586Z,20.92
2023-04-20T14:40:52.953Z,20.74
2023-04-20T14:43:20.283Z,20.81
2023-04-20T14:45:47.919Z,21.11
2023-04-20T14:48:15.110Z,21.37
2023-04-20T14:50:42.378Z,21.31
2023-04-20T14:53:10.057Z,21.23
2023-04-20T14:55:37.482Z,21.56
2023-04-20T14:58:04.894Z,21.32
2023-04-20T15:00:32.343Z,21.83
2023-04-20T15:03:00.979Z,21.75
2023-04-20T15:05:30.457Z,22.08
2023-04-20T15:07:58.695Z,21.93
2023-04-20T15:10:26.500Z,21.78
2023-04-20T15:12:53.915Z,22.11
2023-04-20T15:15:21.418Z,22.34
2023-04-20T15:17:48.878Z,22.26
2023-04-20T15:20:16.437Z,21.92
2023-04-20T15:22:43.871Z,22.21
2023-04-20T15:25:11.240Z,22.28
2023-04-20T15:27:38.819Z,22.22
2023-04-20T15:30:06.769Z,22.26
2023-04-20T15:32:34.249Z,22.04
2023-04-20T15:35:01.956Z,22.51
2023-04-20T15:37:32.040Z,22.58
2023-04-20T15:39:59.517Z,22.96
2023-04-20T15:42:27.901Z,23.25
2023-04-20T15:44:55.617Z,23.53
2023-04-20T15:47:23.100Z,23.84
2023-04-20T15:49:50.637Z,23.80
2023-04-20T15:52:17.981Z,24.00
2023-04-20T15:54:47.579Z,24.30
2023-04-20T15:57:15.031Z,24.20
2023-04-20T15:59:42.502Z,24.48
2023-04-20T16:02:09.997Z,24.31
2023-04-20T16:04:37.437Z,24.70
2023-04-20T16:07:04.891Z,24.92
2023-04-20T16:09:32.334Z,25.03
2023-04-20T16:12:00.126Z,24.83
2023-04-20T16:14:27.531Z,25.17
2023-04-20T16:16:57.202Z,25.15
2023-04-20T16:19:24.587Z,25.31
2023-04-20T16:21:51.916Z,25.48
2023-04-20T16:24:19.795Z,25.03
2023-04-20T16:26:47.220Z,25.12
2023-04-20T16:29:14.565Z,25.60
2023-04-20T16:31:41.969Z,25.70
2023-04-20T16:34:09.427Z,25.26
2023-04-20T16:36:37.192Z,25.69
2023-04-20T16:39:07.148Z,25.89
2023-04-20T16:41:34.515Z,26.29
2023-04-20T16:44:02.374Z,26.44
2023-04-20T16:46:29.640Z,26.30
2023-04-20T16:48:57.007Z,26.57
2023-04-20T16:51:24.392Z,26.52
2023-04-20T16:54:11.766Z,26.63
2023-04-20T16:56:39.512Z,26.77
2023-04-20T16:59:06.795Z,27.42
2023-04-20T17:01:34.312Z,28.05
2023-04-20T17:04:01.894Z,28.25
2023-04-20T17:06:29.621Z,28.24
2023-04-20T17:09:01.563Z,28.64
2023-04-20T17:11:29.334Z,29.28
2023-04-20T17:13:56.682Z,29.54
2023-04-20T17:16:24.033Z,29.48
2023-04-20T17:18:52.734Z,29.49
2023-04-20T17:21:20.127Z,29.49
2023-04-20T17:23:47.620Z,29.43
2023-04-20T17:26:14.963Z,29.66
2023-04-20T17:28:42.374Z,29.67
2023-04-20T17:31:10.583Z,29.52
2023-04-20T17:33:38.015Z,29.36
2023-04-20T17:36:05.535Z,29.53
2023-04-20T17:38:36.846Z,29.33
2023-04-20T17:41:05.088Z,29.30
2023-04-20T17:43:32.480Z,29.13
2023-04-20T17:46:00.946Z,28.89
2023-04-20T17:48:28.422Z,28.88
2023-04-20T17:50:58.114Z,28.53
2023-04-20T17:53:26.122Z,28.33
2023-04-20T17:55:53.495Z,28.45
2023-04-20T17:58:20.881Z,28.61
2023-04-20T18:00:48.255Z,28.97
2023-04-20T18:03:16.030Z,28.83
2023-04-20T18:05:43.355Z,28.77
2023-04-20T18:08:10.834Z,28.88
2023-04-20T18:10:38.621Z,28.87
2023-04-20T18:13:06.357Z,29.02
2023-04-20T18:15:33.698Z,29.24
2023-04-20T18:18:01.175Z,28.90
2023-04-20T18:20:30.021Z,28.99
2023-04-20T18:22:59.181Z,29.09
2023-04-20T18:25:26.721Z,28.64
2023-04-20T18:27:54.044Z,28.47
2023-04-20T18:30:21.483Z,28.48
2023-04-20T18:32:48.994Z,28.72
2023-04-20T18:35:16.639Z,28.30
2023-04-20T18:37:43.979Z,28.82
2023-04-20T18:40:12.581Z,28.60
2023-04-20T18:42:40.864Z,28.41
2023-04-20T18:45:26.725Z,28.75
2023-04-20T18:47:54.030Z,28.61
2023-04-20T18:50:21.505Z,28.62
2023-04-20T18:52:48.947Z,28.41
2023-04-20T18:55:16.482Z,28.25
2023-04-20T18:57:43.866Z,28.45
2023-04-20T19:00:12.092Z,28.59
2023-04-20T19:02:39.477Z,28.44
2023-04-20T19:05:07.361Z,28.46
2023-04-20T19:07:34.719Z,28.50
2023-04-20T19:10:02.148Z,28.49
2023-04-20T19:12:32.750Z,28.59
2023-04-20T19:15:04.721Z,28.41
2023-04-20T19:17:34.565Z,28.92
2023-04-20T19:20:03.117Z,28.79
2023-04-20T19:22:32.094Z,29.01
2023-04-20T19:24:59.708Z,29.15
2023-04-20T19:27:27.176Z,29.46
2023-04-20T19:29:54.567Z,29.32
2023-04-20T19:32:21.985Z,29.23
2023-04-20T19:34:49.446Z,29.31
2023-04-20T19:37:16.841Z,29.20
2023-04-20T19:39:44.208Z,29.15
2023-04-20T19:42:11.717Z,29.44
2023-04-20T19:44:39.207Z,29.53
2023-04-20T19:47:06.516Z,29.37
2023-04-20T19:49:34.015Z,29.43
2023-04-20T19:52:01.372Z,29.74
2023-04-20T19:54:28.900Z,29.85
2023-04-20T19:56:56.376Z,30.03
2023-04-20T19:59:23.916Z,29.87
2023-04-20T20:01:51.440Z,29.69
2023-04-20T20:04:20.590Z,30.51
2023-04-20T20:06:50.875Z,30.32
2023-04-20T20:09:19.542Z,29.94
2023-04-20T20:11:51.294Z,29.85
2023-04-20T20:14:19.533Z,30.29
2023-04-20T20:16:46.985Z,30.35
2023-04-20T20:19:14.517Z,29.70
2023-04-20T20:21:41.845Z,30.18
2023-04-20T20:24:09.392Z,30.40
2023-04-20T20:26:36.697Z,30.00
2023-04-20T20:29:04.066Z,30.04
2023-04-20T20:31:31.543Z,30.28
2023-04-20T20:33:59.209Z,30.43
2023-04-20T20:36:26.673Z,30.82
2023-04-20T20:38:54.159Z,30.45
2023-04-20T20:41:21.634Z,30.88
2023-04-20T20:43:50.214Z,30.51
2023-04-20T20:46:17.604Z,31.09
2023-04-20T20:48:44.968Z,31.03
2023-04-20T20:51:12.406Z,31.06
2023-04-20T20:53:39.715Z,31.25
2023-04-20T20:56:07.198Z,31.34
2023-04-20T20:58:34.630Z,31.35
2023-04-20T21:01:02.103Z,31.63
2023-04-20T21:03:29.821Z,32.03
2023-04-20T21:05:57.274Z,31.93
2023-04-20T21:08:24.684Z,31.86
2023-04-20T21:10:52.028Z,32.04
2023-04-20T21:13:19.670Z,32.01
2023-04-20T21:15:47.243Z,32.21
2023-04-20T21:18:15.838Z,32.66
2023-04-20T21:20:43.230Z,32.21
2023-04-20T21:23:11.016Z,32.33
2023-04-20T21:25:38.365Z,32.55
2023-04-20T21:28:05.856Z,32.85
2023-04-20T21:30:33.307Z,33.00
2023-04-20T21:33:00.736Z,33.19
2023-04-20T21:35:28.084Z,33.41
2023-04-20T21:37:55.424Z,33.77
2023-04-20T21:40:25.453Z,33.34
2023-04-20T21:42:53.010Z,33.84
2023-04-20T21:45:20.463Z,33.60
2023-04-20T21:47:47.870Z,34.05
2023-04-20T21:50:15.362Z,34.16
2023-04-20T21:52:42.778Z,34.23
2023-04-20T21:55:10.472Z,34.07
2023-04-20T21:57:37.832Z,34.64
2023-04-20T22:00:05.669Z,34.32
2023-04-20T22:02:42.336Z,34.25
2023-04-20T22:05:10.513Z,34.34
2023-04-20T22:07:40.943Z,33.90
2023-04-20T22:10:08.879Z,34.00
2023-04-20T22:12:40.630Z,34.17
2023-04-20T22:15:13.910Z,33.74
2023-04-20T22:17:42.243Z,33.68
2023-04-20T22:20:10.948Z,33.97
2023-04-20T22:22:40.875Z,34.02
2023-04-20T22:25:09.339Z,34.06
2023-04-20T22:27:37.955Z,33.72
2023-04-20T22:30:06.700Z,34.13
2023-04-20T22:32:34.444Z,34.09
2023-04-20T22:35:02.176Z,33.94
2023-04-20T22:37:31.488Z,34.47
2023-04-20T22:39:58.892Z,34.26
2023-04-20T22:42:44.870Z,34.57
2023-04-20T22:45:12.349Z,34.16
2023-04-20T22:47:39.935Z,34.05
2023-04-20T22:50:09.772Z,34.29
2023-04-20T22:52:38.928Z,34.46
2023-04-20T22:55:08.321Z,34.29
2023-04-20T22:57:36.010Z,33.95
2023-04-20T23:00:07.964Z,34.04
2023-04-20T23:02:54.201Z,33.76
2023-04-20T23:05:21.664Z,33.68
2023-04-20T23:07:49.046Z,33.13
2023-04-20T23:10:19.502Z,33.83
2023-04-20T23:12:49.418Z,34.32
2023-04-20T23:15:16.763Z,34.59
2023-04-20T23:17:44.283Z,34.84
2023-04-20T23:20:14.043Z,34.75
2023-04-20T23:22:41.666Z,35.44
2023-04-20T23:25:10.046Z,35.71
2023-04-20T23:27:37.536Z,35.65
2023-04-20T23:30:06.788Z,35.57
2023-04-20T23:32:34.185Z,35.97
2023-04-20T23:35:01.662Z,35.81
2023-04-20T23:37:31.564Z,35.76
2023-04-20T23:39:58.916Z,35.95
2023-04-20T23:42:26.491Z,36.21
2023-04-20T23:44:53.857Z,36.34
2023-04-20T23:47:21.255Z,36.81
2023-04-20T23:49:48.591Z,36.36
2023-04-20T23:55:00.886Z,36.09
2023-04-20T23:57:28.469Z,36.31
2023-04-20T23:59:56.181Z,36.80
